FIN2PC EFHK-EFIV
Flight info
| Callsign | FIN2PC |
|---|---|
| Flight time | 1h 41m |
| Altitude | 38000 |
| Route | TEVRU4N/22R TEVRU Y75 USUPO DCT RENVI/N0453F370 DCT SOTIT |
| Aircraft | A320/M-SDE3FGHIRWY/LB1 |
Departure
| Time | 2026-04-24 21:21 |
|---|---|
| Airport | Helsinki Vantaa Airport (EFHK) |
Arrival
| Time | 2026-04-24 23:02 |
|---|---|
| Airport | Ivalo Airport (EFIV) |
| Time | Latitude | Longitude | Altitude | Speed | Heading |
|---|---|---|---|---|---|
| 2026-04-24 21:02 | 60.32008 | 24.96844 | 163 ft | 0 kts | 193° |
| 2026-04-24 21:09 | 60.32022 | 24.96851 | 163 ft | 4 kts | 205° |
| 2026-04-24 21:09 | 60.32043 | 24.96882 | 163 ft | 4 kts | 240° |
| 2026-04-24 21:09 | 60.32050 | 24.96932 | 163 ft | 4 kts | 278° |
| 2026-04-24 21:10 | 60.32041 | 24.96971 | 163 ft | 1 kts | 332° |
| 2026-04-24 21:10 | 60.32041 | 24.96972 | 163 ft | 0 kts | 333° |
| 2026-04-24 21:15 | 60.32042 | 24.96971 | 163 ft | 2 kts | 333° |
| 2026-04-24 21:16 | 60.32078 | 24.96929 | 163 ft | 8 kts | 330° |
| 2026-04-24 21:16 | 60.32132 | 24.96866 | 164 ft | 11 kts | 329° |
| 2026-04-24 21:16 | 60.32195 | 24.96792 | 165 ft | 12 kts | 330° |
| 2026-04-24 21:16 | 60.32260 | 24.96716 | 166 ft | 9 kts | 329° |
| 2026-04-24 21:17 | 60.32330 | 24.96634 | 169 ft | 14 kts | 330° |
| 2026-04-24 21:17 | 60.32424 | 24.96525 | 176 ft | 18 kts | 329° |
| 2026-04-24 21:17 | 60.32551 | 24.96377 | 174 ft | 23 kts | 330° |
| 2026-04-24 21:17 | 60.32698 | 24.96206 | 172 ft | 25 kts | 330° |
| 2026-04-24 21:18 | 60.32852 | 24.96027 | 174 ft | 26 kts | 330° |
| 2026-04-24 21:18 | 60.33005 | 24.95846 | 180 ft | 25 kts | 329° |
| 2026-04-24 21:18 | 60.33143 | 24.95641 | 180 ft | 26 kts | 315° |
| 2026-04-24 21:18 | 60.33204 | 24.95394 | 181 ft | 20 kts | 251° |
| 2026-04-24 21:19 | 60.33123 | 24.95189 | 177 ft | 16 kts | 241° |
| 2026-04-24 21:19 | 60.33110 | 24.94966 | 178 ft | 17 kts | 273° |
| 2026-04-24 21:19 | 60.33116 | 24.94707 | 183 ft | 21 kts | 272° |
| 2026-04-24 21:19 | 60.33108 | 24.94391 | 198 ft | 19 kts | 244° |
| 2026-04-24 21:20 | 60.32675 | 24.93423 | 179 ft | 104 kts | 227° |
| 2026-04-24 21:20 | 60.32050 | 24.92053 | 161 ft | 159 kts | 227° |
| 2026-04-24 21:20 | 60.31298 | 24.90425 | 763 ft | 157 kts | 228° |
| 2026-04-24 21:21 | 60.30564 | 24.88778 | 1432 ft | 163 kts | 236° |
| 2026-04-24 21:21 | 60.30164 | 24.86533 | 1760 ft | 180 kts | 268° |
| 2026-04-24 21:21 | 60.30359 | 24.83937 | 2125 ft | 199 kts | 292° |
| 2026-04-24 21:21 | 60.30949 | 24.81246 | 2574 ft | 220 kts | 295° |
| 2026-04-24 21:22 | 60.31606 | 24.78298 | 3119 ft | 240 kts | 295° |
| 2026-04-24 21:22 | 60.32370 | 24.75208 | 3939 ft | 248 kts | 299° |
| 2026-04-24 21:22 | 60.33217 | 24.72153 | 4898 ft | 251 kts | 301° |
| 2026-04-24 21:22 | 60.34087 | 24.69086 | 5879 ft | 252 kts | 302° |
| 2026-04-24 21:23 | 60.34988 | 24.66042 | 6823 ft | 253 kts | 309° |
| 2026-04-24 21:23 | 60.36299 | 24.63702 | 7707 ft | 254 kts | 331° |
| 2026-04-24 21:23 | 60.37981 | 24.62595 | 8592 ft | 259 kts | 352° |
| 2026-04-24 21:23 | 60.39798 | 24.62913 | 9470 ft | 267 kts | 9° |
| 2026-04-24 21:24 | 60.41640 | 24.63752 | 10046 ft | 281 kts | 9° |
| 2026-04-24 21:24 | 60.43629 | 24.64657 | 10356 ft | 302 kts | 9° |
| 2026-04-24 21:24 | 60.45683 | 24.65598 | 10992 ft | 310 kts | 9° |
| 2026-04-24 21:24 | 60.47797 | 24.66576 | 11763 ft | 314 kts | 8° |
| 2026-04-24 21:25 | 60.49939 | 24.67565 | 12551 ft | 317 kts | 8° |
| 2026-04-24 21:25 | 60.52101 | 24.68561 | 13340 ft | 320 kts | 8° |
| 2026-04-24 21:25 | 60.54291 | 24.69572 | 14050 ft | 324 kts | 7° |
| 2026-04-24 21:25 | 60.56500 | 24.70589 | 14711 ft | 327 kts | 7° |
| 2026-04-24 21:26 | 60.58731 | 24.71614 | 15375 ft | 331 kts | 7° |
| 2026-04-24 21:26 | 60.60994 | 24.72653 | 16026 ft | 335 kts | 6° |
| 2026-04-24 21:26 | 60.63277 | 24.73706 | 16667 ft | 338 kts | 6° |
| 2026-04-24 21:26 | 60.65588 | 24.74773 | 17302 ft | 342 kts | 6° |
| 2026-04-24 21:27 | 60.67925 | 24.75852 | 17948 ft | 346 kts | 6° |
| 2026-04-24 21:27 | 60.70286 | 24.76945 | 18498 ft | 350 kts | 6° |
| 2026-04-24 21:27 | 60.72674 | 24.78061 | 19039 ft | 354 kts | 6° |
| 2026-04-24 21:27 | 60.75083 | 24.79186 | 19588 ft | 357 kts | 6° |
| 2026-04-24 21:28 | 60.77489 | 24.80307 | 20133 ft | 361 kts | 6° |
| 2026-04-24 21:28 | 60.79979 | 24.81466 | 20681 ft | 364 kts | 5° |
| 2026-04-24 21:28 | 60.82471 | 24.82532 | 21221 ft | 365 kts | 1° |
| 2026-04-24 21:28 | 60.84992 | 24.83140 | 21763 ft | 367 kts | 359° |
| 2026-04-24 21:29 | 60.87504 | 24.83723 | 22294 ft | 370 kts | 359° |
| 2026-04-24 21:29 | 60.90076 | 24.84320 | 22833 ft | 374 kts | 359° |
| 2026-04-24 21:29 | 60.92673 | 24.84929 | 23351 ft | 377 kts | 359° |
| 2026-04-24 21:29 | 60.95291 | 24.85548 | 23772 ft | 380 kts | 359° |
| 2026-04-24 21:30 | 60.97929 | 24.86178 | 24200 ft | 383 kts | 359° |
| 2026-04-24 21:30 | 61.00588 | 24.86810 | 24621 ft | 386 kts | 359° |
| 2026-04-24 21:30 | 61.03267 | 24.87451 | 25040 ft | 389 kts | 359° |
| 2026-04-24 21:30 | 61.05962 | 24.88102 | 25446 ft | 391 kts | 359° |
| 2026-04-24 21:31 | 61.08680 | 24.88757 | 25834 ft | 394 kts | 359° |
| 2026-04-24 21:31 | 61.11415 | 24.89412 | 26230 ft | 397 kts | 359° |
| 2026-04-24 21:31 | 61.14165 | 24.90068 | 26625 ft | 399 kts | 359° |
| 2026-04-24 21:31 | 61.16929 | 24.90734 | 27001 ft | 402 kts | 359° |
| 2026-04-24 21:32 | 61.19713 | 24.91407 | 27379 ft | 404 kts | 359° |
| 2026-04-24 21:32 | 61.22515 | 24.92082 | 27750 ft | 406 kts | 359° |
| 2026-04-24 21:32 | 61.25332 | 24.92760 | 28118 ft | 409 kts | 359° |
| 2026-04-24 21:32 | 61.28166 | 24.93445 | 28470 ft | 411 kts | 359° |
| 2026-04-24 21:33 | 61.31015 | 24.94137 | 28829 ft | 413 kts | 359° |
| 2026-04-24 21:33 | 61.32912 | 24.94596 | 29056 ft | 415 kts | 359° |
| 2026-04-24 21:33 | 61.36761 | 24.95527 | 29509 ft | 418 kts | 359° |
| 2026-04-24 21:33 | 61.39659 | 24.96234 | 29825 ft | 420 kts | 359° |
| 2026-04-24 21:34 | 61.42567 | 24.96948 | 30082 ft | 422 kts | 359° |
| 2026-04-24 21:34 | 61.45490 | 24.97669 | 30330 ft | 425 kts | 359° |
| 2026-04-24 21:34 | 61.48433 | 24.98396 | 30584 ft | 427 kts | 359° |
| 2026-04-24 21:34 | 61.51387 | 24.99123 | 30817 ft | 429 kts | 359° |
| 2026-04-24 21:35 | 61.54323 | 24.99844 | 31042 ft | 431 kts | 359° |
| 2026-04-24 21:35 | 61.57345 | 25.00587 | 31322 ft | 432 kts | 359° |
| 2026-04-24 21:35 | 61.60321 | 25.01326 | 31645 ft | 432 kts | 359° |
| 2026-04-24 21:35 | 61.63270 | 25.01967 | 31963 ft | 430 kts | 357° |
| 2026-04-24 21:36 | 61.66249 | 25.02381 | 32283 ft | 428 kts | 355° |
| 2026-04-24 21:36 | 61.69217 | 25.02637 | 32568 ft | 428 kts | 355° |
| 2026-04-24 21:36 | 61.72195 | 25.02823 | 32871 ft | 428 kts | 354° |
| 2026-04-24 21:36 | 61.75172 | 25.03005 | 33190 ft | 428 kts | 355° |
| 2026-04-24 21:37 | 61.78148 | 25.03224 | 33504 ft | 429 kts | 355° |
| 2026-04-24 21:37 | 61.81132 | 25.03485 | 33787 ft | 429 kts | 356° |
| 2026-04-24 21:37 | 61.84114 | 25.03778 | 34042 ft | 429 kts | 356° |
| 2026-04-24 21:37 | 61.87101 | 25.04087 | 34294 ft | 429 kts | 356° |
| 2026-04-24 21:38 | 61.90083 | 25.04399 | 34552 ft | 429 kts | 356° |
| 2026-04-24 21:38 | 61.93068 | 25.04710 | 34810 ft | 429 kts | 356° |
| 2026-04-24 21:38 | 61.96051 | 25.05023 | 35045 ft | 429 kts | 356° |
| 2026-04-24 21:38 | 61.99034 | 25.05332 | 35278 ft | 429 kts | 357° |
| 2026-04-24 21:39 | 62.02011 | 25.05634 | 35513 ft | 429 kts | 357° |
| 2026-04-24 21:39 | 62.04993 | 25.05932 | 35740 ft | 429 kts | 357° |
| 2026-04-24 21:39 | 62.07969 | 25.06230 | 35959 ft | 428 kts | 357° |
| 2026-04-24 21:39 | 62.10946 | 25.06530 | 36170 ft | 428 kts | 357° |
| 2026-04-24 21:40 | 62.13924 | 25.06835 | 36371 ft | 428 kts | 357° |
| 2026-04-24 21:40 | 62.16905 | 25.07141 | 36565 ft | 429 kts | 357° |
| 2026-04-24 21:40 | 62.19842 | 25.07446 | 36751 ft | 429 kts | 357° |
| 2026-04-24 21:40 | 62.22862 | 25.07760 | 36938 ft | 429 kts | 357° |
| 2026-04-24 21:41 | 62.25847 | 25.08071 | 37110 ft | 429 kts | 357° |
| 2026-04-24 21:41 | 62.28791 | 25.08377 | 37284 ft | 429 kts | 358° |
| 2026-04-24 21:41 | 62.31782 | 25.08687 | 37438 ft | 430 kts | 358° |
| 2026-04-24 21:41 | 62.34766 | 25.08993 | 37617 ft | 430 kts | 358° |
| 2026-04-24 21:42 | 62.37756 | 25.09298 | 37667 ft | 431 kts | 358° |
| 2026-04-24 21:42 | 62.43749 | 25.09915 | 37662 ft | 431 kts | 358° |
| 2026-04-24 21:43 | 62.49741 | 25.10540 | 37650 ft | 431 kts | 358° |
| 2026-04-24 21:43 | 62.55735 | 25.11171 | 37655 ft | 432 kts | 358° |
| 2026-04-24 21:44 | 62.61740 | 25.11801 | 37662 ft | 432 kts | 358° |
| 2026-04-24 21:44 | 62.67747 | 25.12441 | 37666 ft | 432 kts | 358° |
| 2026-04-24 21:45 | 62.73718 | 25.13088 | 37664 ft | 433 kts | 358° |
| 2026-04-24 21:45 | 62.79733 | 25.13726 | 37659 ft | 433 kts | 358° |
| 2026-04-24 21:46 | 62.85757 | 25.14364 | 37679 ft | 433 kts | 358° |
| 2026-04-24 21:46 | 62.91779 | 25.15010 | 37671 ft | 433 kts | 358° |
| 2026-04-24 21:47 | 62.97800 | 25.15655 | 37667 ft | 433 kts | 358° |
| 2026-04-24 21:47 | 63.03826 | 25.16307 | 37669 ft | 433 kts | 359° |
| 2026-04-24 21:48 | 63.09846 | 25.16966 | 37671 ft | 433 kts | 359° |
| 2026-04-24 21:48 | 63.15865 | 25.17613 | 37672 ft | 433 kts | 359° |
| 2026-04-24 21:49 | 63.21884 | 25.18267 | 37669 ft | 433 kts | 359° |
| 2026-04-24 21:49 | 63.27898 | 25.18938 | 37672 ft | 433 kts | 359° |
| 2026-04-24 21:50 | 63.32892 | 25.19493 | 37670 ft | 432 kts | 359° |
| 2026-04-24 21:50 | 63.39870 | 25.20254 | 37670 ft | 432 kts | 359° |
| 2026-04-24 21:51 | 63.45869 | 25.20926 | 37671 ft | 431 kts | 359° |
| 2026-04-24 21:51 | 63.50889 | 25.21495 | 37670 ft | 431 kts | 359° |
| 2026-04-24 21:52 | 63.56882 | 25.22172 | 37672 ft | 431 kts | 359° |
| 2026-04-24 21:52 | 63.62833 | 25.22835 | 37668 ft | 431 kts | 359° |
| 2026-04-24 21:53 | 63.68814 | 25.23523 | 37665 ft | 431 kts | 359° |
| 2026-04-24 21:53 | 63.74802 | 25.24226 | 37665 ft | 430 kts | 359° |
| 2026-04-24 21:54 | 63.80786 | 25.24901 | 37663 ft | 430 kts | 359° |
| 2026-04-24 21:54 | 63.86772 | 25.25568 | 37663 ft | 430 kts | 359° |
| 2026-04-24 21:55 | 63.92755 | 25.26259 | 37662 ft | 431 kts | 359° |
| 2026-04-24 21:55 | 63.98740 | 25.26966 | 37661 ft | 431 kts | 359° |
| 2026-04-24 21:56 | 64.04726 | 25.27664 | 37661 ft | 431 kts | 359° |
| 2026-04-24 21:56 | 64.10720 | 25.28350 | 37663 ft | 431 kts | 359° |
| 2026-04-24 21:57 | 64.16721 | 25.29064 | 37664 ft | 432 kts | 359° |
| 2026-04-24 21:57 | 64.22723 | 25.29763 | 37663 ft | 432 kts | 359° |
| 2026-04-24 21:58 | 64.28727 | 25.30466 | 37664 ft | 432 kts | 359° |
| 2026-04-24 21:58 | 64.34702 | 25.31185 | 37662 ft | 433 kts | 359° |
| 2026-04-24 21:59 | 64.40721 | 25.31904 | 37659 ft | 433 kts | 359° |
| 2026-04-24 21:59 | 64.46745 | 25.32626 | 37658 ft | 434 kts | 359° |
| 2026-04-24 22:00 | 64.52778 | 25.33359 | 37657 ft | 434 kts | 359° |
| 2026-04-24 22:00 | 64.58816 | 25.34088 | 37655 ft | 435 kts | 359° |
| 2026-04-24 22:01 | 64.64863 | 25.34812 | 37649 ft | 435 kts | 359° |
| 2026-04-24 22:01 | 64.70914 | 25.35541 | 37656 ft | 436 kts | 359° |
| 2026-04-24 22:02 | 64.76973 | 25.36273 | 37647 ft | 436 kts | 359° |
| 2026-04-24 22:02 | 64.83038 | 25.37023 | 37649 ft | 437 kts | 359° |
| 2026-04-24 22:03 | 64.89104 | 25.37789 | 37650 ft | 437 kts | 359° |
| 2026-04-24 22:03 | 64.95180 | 25.38562 | 37647 ft | 437 kts | 359° |
| 2026-04-24 22:04 | 65.01253 | 25.39323 | 37649 ft | 437 kts | 359° |
| 2026-04-24 22:04 | 65.07291 | 25.40058 | 37650 ft | 437 kts | 359° |
| 2026-04-24 22:05 | 65.13357 | 25.40812 | 37622 ft | 436 kts | 359° |
| 2026-04-24 22:05 | 65.19424 | 25.41590 | 37623 ft | 437 kts | 359° |
| 2026-04-24 22:06 | 65.25494 | 25.42365 | 37627 ft | 437 kts | 359° |
| 2026-04-24 22:06 | 65.31564 | 25.43150 | 37624 ft | 437 kts | 359° |
| 2026-04-24 22:07 | 65.37635 | 25.43932 | 37627 ft | 437 kts | 359° |
| 2026-04-24 22:07 | 65.43709 | 25.44697 | 37635 ft | 438 kts | 359° |
| 2026-04-24 22:08 | 65.49792 | 25.45480 | 37647 ft | 438 kts | 359° |
| 2026-04-24 22:08 | 65.55884 | 25.46277 | 37647 ft | 438 kts | 359° |
| 2026-04-24 22:09 | 65.61970 | 25.47082 | 37642 ft | 438 kts | 359° |
| 2026-04-24 22:09 | 65.68029 | 25.47875 | 37646 ft | 439 kts | 359° |
| 2026-04-24 22:10 | 65.74119 | 25.48677 | 37649 ft | 439 kts | 360° |
| 2026-04-24 22:10 | 65.80216 | 25.49489 | 37657 ft | 438 kts | 360° |
| 2026-04-24 22:11 | 65.86300 | 25.50291 | 37656 ft | 438 kts | 360° |
| 2026-04-24 22:11 | 65.92390 | 25.51093 | 37657 ft | 438 kts | 360° |
| 2026-04-24 22:12 | 65.98478 | 25.51909 | 37657 ft | 438 kts | 360° |
| 2026-04-24 22:12 | 66.04553 | 25.52730 | 37656 ft | 437 kts | 360° |
| 2026-04-24 22:13 | 66.10571 | 25.55213 | 37654 ft | 442 kts | 12° |
| 2026-04-24 22:13 | 66.16488 | 25.59404 | 37661 ft | 442 kts | 12° |
| 2026-04-24 22:14 | 66.22402 | 25.63593 | 37662 ft | 442 kts | 12° |
| 2026-04-24 22:14 | 66.28318 | 25.67800 | 37646 ft | 442 kts | 12° |
| 2026-04-24 22:15 | 66.34224 | 25.72026 | 37639 ft | 441 kts | 12° |
| 2026-04-24 22:15 | 66.40119 | 25.76244 | 37632 ft | 441 kts | 12° |
| 2026-04-24 22:16 | 66.46011 | 25.80502 | 37616 ft | 440 kts | 12° |
| 2026-04-24 22:16 | 66.51893 | 25.84783 | 37613 ft | 440 kts | 12° |
| 2026-04-24 22:17 | 66.57775 | 25.89079 | 37615 ft | 440 kts | 12° |
| 2026-04-24 22:17 | 66.63651 | 25.93387 | 37625 ft | 439 kts | 12° |
| 2026-04-24 22:18 | 66.69481 | 25.97686 | 37618 ft | 439 kts | 12° |
| 2026-04-24 22:18 | 66.75344 | 26.02018 | 37630 ft | 439 kts | 12° |
| 2026-04-24 22:19 | 66.81202 | 26.06347 | 37640 ft | 438 kts | 12° |
| 2026-04-24 22:19 | 66.87055 | 26.10733 | 37656 ft | 438 kts | 13° |
| 2026-04-24 22:20 | 66.92897 | 26.15149 | 37659 ft | 438 kts | 13° |
| 2026-04-24 22:20 | 66.98744 | 26.19567 | 37664 ft | 438 kts | 12° |
| 2026-04-24 22:20 | 67.01668 | 26.21775 | 37492 ft | 438 kts | 12° |
| 2026-04-24 22:21 | 67.04581 | 26.23988 | 37241 ft | 436 kts | 12° |
| 2026-04-24 22:21 | 67.07480 | 26.26201 | 36992 ft | 435 kts | 12° |
| 2026-04-24 22:21 | 67.10386 | 26.28420 | 36741 ft | 435 kts | 12° |
| 2026-04-24 22:21 | 67.13288 | 26.30635 | 36288 ft | 435 kts | 12° |
| 2026-04-24 22:22 | 67.16193 | 26.32858 | 35562 ft | 437 kts | 12° |
| 2026-04-24 22:22 | 67.19087 | 26.35088 | 35091 ft | 432 kts | 12° |
| 2026-04-24 22:22 | 67.21953 | 26.37307 | 34574 ft | 429 kts | 11° |
| 2026-04-24 22:22 | 67.24809 | 26.39518 | 34045 ft | 426 kts | 11° |
| 2026-04-24 22:23 | 67.27635 | 26.41710 | 33500 ft | 423 kts | 11° |
| 2026-04-24 22:23 | 67.30439 | 26.43885 | 32954 ft | 419 kts | 11° |
| 2026-04-24 22:23 | 67.33214 | 26.46045 | 32454 ft | 413 kts | 11° |
| 2026-04-24 22:23 | 67.35952 | 26.48181 | 31952 ft | 408 kts | 11° |
| 2026-04-24 22:24 | 67.38658 | 26.50297 | 31463 ft | 404 kts | 11° |
| 2026-04-24 22:24 | 67.41333 | 26.52390 | 30980 ft | 399 kts | 11° |
| 2026-04-24 22:24 | 67.43980 | 26.54466 | 30501 ft | 395 kts | 11° |
| 2026-04-24 22:24 | 67.46591 | 26.56521 | 30041 ft | 390 kts | 10° |
| 2026-04-24 22:25 | 67.49176 | 26.58564 | 29559 ft | 386 kts | 10° |
| 2026-04-24 22:25 | 67.51726 | 26.60588 | 29091 ft | 380 kts | 10° |
| 2026-04-24 22:25 | 67.54233 | 26.62594 | 28659 ft | 373 kts | 10° |
| 2026-04-24 22:25 | 67.56692 | 26.64558 | 28243 ft | 366 kts | 10° |
| 2026-04-24 22:26 | 67.59108 | 26.66489 | 27843 ft | 360 kts | 10° |
| 2026-04-24 22:26 | 67.61492 | 26.68387 | 27436 ft | 355 kts | 10° |
| 2026-04-24 22:26 | 67.63833 | 26.70257 | 27038 ft | 350 kts | 10° |
| 2026-04-24 22:26 | 67.66148 | 26.72111 | 26646 ft | 345 kts | 10° |
| 2026-04-24 22:27 | 67.68427 | 26.73940 | 26251 ft | 340 kts | 10° |
| 2026-04-24 22:27 | 67.70679 | 26.75751 | 25857 ft | 336 kts | 10° |
| 2026-04-24 22:27 | 67.72904 | 26.77542 | 25461 ft | 332 kts | 10° |
| 2026-04-24 22:27 | 67.75101 | 26.79313 | 25057 ft | 328 kts | 10° |
| 2026-04-24 22:28 | 67.77270 | 26.81065 | 24664 ft | 324 kts | 10° |
| 2026-04-24 22:28 | 67.79420 | 26.82815 | 24253 ft | 322 kts | 10° |
| 2026-04-24 22:28 | 67.81542 | 26.84556 | 23844 ft | 319 kts | 10° |
| 2026-04-24 22:28 | 67.83656 | 26.86279 | 23438 ft | 315 kts | 10° |
| 2026-04-24 22:29 | 67.87804 | 26.89664 | 22574 ft | 308 kts | 10° |
| 2026-04-24 22:29 | 67.89843 | 26.91336 | 22185 ft | 304 kts | 10° |
| 2026-04-24 22:29 | 67.91851 | 26.92978 | 21795 ft | 300 kts | 10° |
| 2026-04-24 22:30 | 67.93828 | 26.94601 | 21423 ft | 296 kts | 10° |
| 2026-04-24 22:30 | 67.95780 | 26.96207 | 21055 ft | 292 kts | 10° |
| 2026-04-24 22:30 | 67.97711 | 26.97793 | 20685 ft | 289 kts | 10° |
| 2026-04-24 22:30 | 67.99623 | 26.99367 | 20321 ft | 285 kts | 10° |
| 2026-04-24 22:31 | 68.01509 | 27.00921 | 19970 ft | 282 kts | 10° |
| 2026-04-24 22:31 | 68.03378 | 27.02471 | 19615 ft | 280 kts | 10° |
| 2026-04-24 22:31 | 68.05230 | 27.04007 | 19273 ft | 277 kts | 10° |
| 2026-04-24 22:31 | 68.07066 | 27.05535 | 18929 ft | 275 kts | 10° |
| 2026-04-24 22:32 | 68.08887 | 27.07055 | 18590 ft | 273 kts | 11° |
| 2026-04-24 22:32 | 68.10697 | 27.08568 | 18255 ft | 272 kts | 11° |
| 2026-04-24 22:32 | 68.12497 | 27.10074 | 17910 ft | 270 kts | 11° |
| 2026-04-24 22:32 | 68.14282 | 27.11572 | 17545 ft | 268 kts | 11° |
| 2026-04-24 22:33 | 68.16054 | 27.13059 | 17212 ft | 265 kts | 11° |
| 2026-04-24 22:33 | 68.17805 | 27.14532 | 16893 ft | 263 kts | 11° |
| 2026-04-24 22:33 | 68.19545 | 27.15995 | 16568 ft | 262 kts | 11° |
| 2026-04-24 22:33 | 68.21281 | 27.17457 | 16238 ft | 261 kts | 11° |
| 2026-04-24 22:34 | 68.23009 | 27.18913 | 15917 ft | 260 kts | 11° |
| 2026-04-24 22:34 | 68.24708 | 27.20620 | 15590 ft | 262 kts | 16° |
| 2026-04-24 22:34 | 68.26389 | 27.22503 | 15270 ft | 261 kts | 17° |
| 2026-04-24 22:34 | 68.28064 | 27.24385 | 14949 ft | 260 kts | 17° |
| 2026-04-24 22:35 | 68.29733 | 27.26265 | 14623 ft | 260 kts | 17° |
| 2026-04-24 22:35 | 68.31397 | 27.28145 | 14298 ft | 259 kts | 17° |
| 2026-04-24 22:35 | 68.33060 | 27.30019 | 13981 ft | 259 kts | 17° |
| 2026-04-24 22:35 | 68.34724 | 27.31892 | 13648 ft | 259 kts | 17° |
| 2026-04-24 22:36 | 68.36386 | 27.33765 | 13310 ft | 259 kts | 18° |
| 2026-04-24 22:36 | 68.37485 | 27.35009 | 13071 ft | 258 kts | 18° |
| 2026-04-24 22:36 | 68.39140 | 27.36885 | 12741 ft | 257 kts | 18° |
| 2026-04-24 22:36 | 68.40781 | 27.38746 | 12401 ft | 255 kts | 17° |
| 2026-04-24 22:37 | 68.42412 | 27.40597 | 12072 ft | 253 kts | 17° |
| 2026-04-24 22:37 | 68.44028 | 27.42436 | 11739 ft | 251 kts | 17° |
| 2026-04-24 22:37 | 68.45634 | 27.44264 | 11405 ft | 250 kts | 17° |
| 2026-04-24 22:37 | 68.47232 | 27.46093 | 11071 ft | 249 kts | 17° |
| 2026-04-24 22:38 | 68.48824 | 27.47911 | 10742 ft | 247 kts | 17° |
| 2026-04-24 22:38 | 68.50407 | 27.49722 | 10400 ft | 247 kts | 17° |
| 2026-04-24 22:38 | 68.51981 | 27.51524 | 10055 ft | 244 kts | 17° |
| 2026-04-24 22:38 | 68.53510 | 27.53582 | 9716 ft | 247 kts | 26° |
| 2026-04-24 22:39 | 68.54857 | 27.56566 | 9343 ft | 253 kts | 38° |
| 2026-04-24 22:39 | 68.56060 | 27.60095 | 8953 ft | 253 kts | 39° |
| 2026-04-24 22:39 | 68.57247 | 27.63608 | 8573 ft | 250 kts | 40° |
| 2026-04-24 22:39 | 68.58424 | 27.67098 | 8191 ft | 249 kts | 40° |
| 2026-04-24 22:40 | 68.59595 | 27.70573 | 7814 ft | 247 kts | 40° |
| 2026-04-24 22:40 | 68.60752 | 27.74020 | 7431 ft | 245 kts | 40° |
| 2026-04-24 22:40 | 68.61894 | 27.77438 | 7052 ft | 242 kts | 40° |
| 2026-04-24 22:40 | 68.63010 | 27.80796 | 6672 ft | 234 kts | 40° |
| 2026-04-24 22:41 | 68.64088 | 27.84038 | 6302 ft | 226 kts | 40° |
| 2026-04-24 22:41 | 68.65133 | 27.87169 | 5937 ft | 218 kts | 40° |
| 2026-04-24 22:41 | 68.66141 | 27.90193 | 5608 ft | 209 kts | 40° |
| 2026-04-24 22:41 | 68.67179 | 27.92686 | 5563 ft | 194 kts | 21° |
| 2026-04-24 22:42 | 68.68436 | 27.93793 | 5501 ft | 188 kts | 1° |
| 2026-04-24 22:42 | 68.69723 | 27.93461 | 5238 ft | 187 kts | 341° |
| 2026-04-24 22:42 | 68.70845 | 27.91723 | 4931 ft | 187 kts | 321° |
| 2026-04-24 22:42 | 68.71788 | 27.89311 | 4822 ft | 185 kts | 321° |
| 2026-04-24 22:43 | 68.72669 | 27.86628 | 4480 ft | 194 kts | 306° |
| 2026-04-24 22:43 | 68.73154 | 27.83154 | 4274 ft | 198 kts | 287° |
| 2026-04-24 22:43 | 68.73134 | 27.79344 | 4072 ft | 208 kts | 265° |
| 2026-04-24 22:43 | 68.72532 | 27.75629 | 3827 ft | 221 kts | 240° |
| 2026-04-24 22:44 | 68.71484 | 27.72400 | 3518 ft | 224 kts | 234° |
| 2026-04-24 22:44 | 68.70424 | 27.69265 | 3205 ft | 224 kts | 234° |
| 2026-04-24 22:44 | 68.69380 | 27.66162 | 2886 ft | 224 kts | 234° |
| 2026-04-24 22:44 | 68.68325 | 27.63023 | 2560 ft | 223 kts | 234° |
| 2026-04-24 22:45 | 68.67273 | 27.59897 | 2228 ft | 223 kts | 234° |
| 2026-04-24 22:45 | 68.66226 | 27.56790 | 1909 ft | 218 kts | 233° |
| 2026-04-24 22:45 | 68.65213 | 27.53795 | 1588 ft | 205 kts | 232° |
| 2026-04-24 22:45 | 68.64282 | 27.51040 | 1332 ft | 192 kts | 231° |
| 2026-04-24 22:46 | 68.63406 | 27.48448 | 1062 ft | 178 kts | 229° |
| 2026-04-24 22:46 | 68.62606 | 27.46083 | 846 ft | 159 kts | 229° |
| 2026-04-24 22:46 | 68.61853 | 27.43866 | 1301 ft | 159 kts | 230° |
| 2026-04-24 22:46 | 68.61075 | 27.41530 | 1981 ft | 175 kts | 236° |
| 2026-04-24 22:47 | 68.60210 | 27.38913 | 2336 ft | 197 kts | 236° |
| 2026-04-24 22:47 | 68.59256 | 27.36045 | 2833 ft | 208 kts | 235° |
| 2026-04-24 22:47 | 68.58256 | 27.33072 | 3380 ft | 219 kts | 235° |
| 2026-04-24 22:47 | 68.57202 | 27.29946 | 3585 ft | 225 kts | 235° |
| 2026-04-24 22:48 | 68.56118 | 27.26851 | 3599 ft | 228 kts | 227° |
| 2026-04-24 22:48 | 68.54660 | 27.24960 | 3612 ft | 241 kts | 192° |
| 2026-04-24 22:48 | 68.52981 | 27.25240 | 3602 ft | 245 kts | 169° |
| 2026-04-24 22:48 | 68.51322 | 27.26331 | 3704 ft | 248 kts | 165° |
| 2026-04-24 22:49 | 68.49650 | 27.27538 | 4586 ft | 252 kts | 165° |
| 2026-04-24 22:49 | 68.47872 | 27.28812 | 4924 ft | 279 kts | 165° |
| 2026-04-24 22:49 | 68.45979 | 27.30355 | 5004 ft | 286 kts | 153° |
| 2026-04-24 22:49 | 68.44421 | 27.33564 | 5010 ft | 279 kts | 123° |
| 2026-04-24 22:50 | 68.43605 | 27.38160 | 5013 ft | 264 kts | 92° |
| 2026-04-24 22:50 | 68.43691 | 27.42911 | 5014 ft | 245 kts | 62° |
| 2026-04-24 22:50 | 68.44466 | 27.46905 | 5012 ft | 237 kts | 49° |
| 2026-04-24 22:50 | 68.45381 | 27.50620 | 5013 ft | 236 kts | 47° |
| 2026-04-24 22:51 | 68.46311 | 27.54304 | 5011 ft | 236 kts | 47° |
| 2026-04-24 22:51 | 68.47252 | 27.57948 | 5008 ft | 234 kts | 43° |
| 2026-04-24 22:51 | 68.48383 | 27.61026 | 5008 ft | 228 kts | 34° |
| 2026-04-24 22:51 | 68.49588 | 27.63815 | 5005 ft | 227 kts | 33° |
| 2026-04-24 22:52 | 68.50802 | 27.66572 | 5008 ft | 227 kts | 32° |
| 2026-04-24 22:52 | 68.51991 | 27.69279 | 5001 ft | 215 kts | 32° |
| 2026-04-24 22:52 | 68.53111 | 27.71834 | 5000 ft | 207 kts | 32° |
| 2026-04-24 22:52 | 68.54217 | 27.74340 | 5004 ft | 206 kts | 32° |
| 2026-04-24 22:53 | 68.55323 | 27.76843 | 5008 ft | 206 kts | 32° |
| 2026-04-24 22:53 | 68.56427 | 27.79342 | 5011 ft | 206 kts | 32° |
| 2026-04-24 22:53 | 68.57531 | 27.81846 | 5008 ft | 206 kts | 32° |
| 2026-04-24 22:53 | 68.58638 | 27.84358 | 5009 ft | 206 kts | 32° |
| 2026-04-24 22:54 | 68.59744 | 27.86870 | 5007 ft | 206 kts | 32° |
| 2026-04-24 22:54 | 68.60847 | 27.89380 | 5011 ft | 206 kts | 32° |
| 2026-04-24 22:54 | 68.61950 | 27.91891 | 5011 ft | 206 kts | 32° |
| 2026-04-24 22:54 | 68.63037 | 27.94367 | 5012 ft | 206 kts | 32° |
| 2026-04-24 22:55 | 68.64152 | 27.96909 | 4965 ft | 206 kts | 31° |
| 2026-04-24 22:55 | 68.65247 | 27.99364 | 4905 ft | 204 kts | 27° |
| 2026-04-24 22:55 | 68.66499 | 28.00773 | 4622 ft | 191 kts | 2° |
| 2026-04-24 22:55 | 68.67784 | 28.00350 | 4236 ft | 187 kts | 338° |
| 2026-04-24 22:56 | 68.68853 | 27.98313 | 3834 ft | 191 kts | 318° |
| 2026-04-24 22:56 | 68.69776 | 27.95715 | 3623 ft | 189 kts | 318° |
| 2026-04-24 22:56 | 68.70717 | 27.93069 | 3616 ft | 192 kts | 318° |
| 2026-04-24 22:56 | 68.71641 | 27.90481 | 3612 ft | 192 kts | 319° |
| 2026-04-24 22:57 | 68.72552 | 27.87799 | 3605 ft | 190 kts | 311° |
| 2026-04-24 22:57 | 68.73132 | 27.84595 | 3606 ft | 183 kts | 294° |
| 2026-04-24 22:57 | 68.73270 | 27.81193 | 3609 ft | 184 kts | 276° |
| 2026-04-24 22:57 | 68.72974 | 27.77754 | 3634 ft | 181 kts | 258° |
| 2026-04-24 22:58 | 68.72317 | 27.74929 | 3595 ft | 176 kts | 240° |
| 2026-04-24 22:58 | 68.71511 | 27.72553 | 3446 ft | 163 kts | 240° |
| 2026-04-24 22:58 | 68.70762 | 27.70308 | 3253 ft | 156 kts | 240° |
| 2026-04-24 22:58 | 68.70038 | 27.68139 | 3038 ft | 153 kts | 240° |
| 2026-04-24 22:59 | 68.69328 | 27.66016 | 2845 ft | 150 kts | 240° |
| 2026-04-24 22:59 | 68.68626 | 27.63926 | 2624 ft | 146 kts | 239° |
| 2026-04-24 22:59 | 68.67262 | 27.59864 | 2205 ft | 143 kts | 239° |
| 2026-04-24 23:00 | 68.66588 | 27.57862 | 2000 ft | 142 kts | 239° |
| 2026-04-24 23:00 | 68.65922 | 27.55888 | 1793 ft | 140 kts | 238° |
| 2026-04-24 23:00 | 68.65262 | 27.53926 | 1570 ft | 139 kts | 236° |
| 2026-04-24 23:00 | 68.64611 | 27.51999 | 1366 ft | 137 kts | 233° |
| 2026-04-24 23:01 | 68.63969 | 27.50103 | 1194 ft | 135 kts | 231° |
| 2026-04-24 23:01 | 68.63341 | 27.48247 | 1031 ft | 131 kts | 229° |
| 2026-04-24 23:01 | 68.62725 | 27.46422 | 852 ft | 130 kts | 228° |
| 2026-04-24 23:01 | 68.62112 | 27.44620 | 688 ft | 129 kts | 228° |
| 2026-04-24 23:02 | 68.61503 | 27.42823 | 523 ft | 128 kts | 228° |
| 2026-04-24 23:02 | 68.60967 | 27.41236 | 473 ft | 81 kts | 226° |
| 2026-04-24 23:02 | 68.60749 | 27.40623 | 474 ft | 17 kts | 220° |
| 2026-04-24 23:02 | 68.60704 | 27.40484 | 472 ft | 13 kts | 230° |
| 2026-04-24 23:03 | 68.60641 | 27.40442 | 473 ft | 10 kts | 118° |
| 2026-04-24 23:03 | 68.60634 | 27.40680 | 471 ft | 13 kts | 92° |
| 2026-04-24 23:03 | 68.60633 | 27.40911 | 475 ft | 11 kts | 79° |
| 2026-04-24 23:03 | 68.60678 | 27.41066 | 475 ft | 10 kts | 47° |
| 2026-04-24 23:04 | 68.60724 | 27.41199 | 468 ft | 11 kts | 46° |
| 2026-04-24 23:04 | 68.60793 | 27.41398 | 476 ft | 14 kts | 47° |
| 2026-04-24 23:04 | 68.60839 | 27.41536 | 470 ft | 4 kts | 48° |
| 2026-04-24 23:04 | 68.60842 | 27.41548 | 476 ft | 1 kts | 56° |
| 2026-04-24 23:05 | 68.60830 | 27.41612 | 473 ft | 5 kts | 136° |
| 2026-04-24 23:05 | 68.60807 | 27.41663 | 473 ft | 4 kts | 137° |
| 2026-04-24 23:05 | 68.60803 | 27.41674 | 476 ft | 0 kts | 137° |